Time;durP1;ratioP1;P1;durP2;ratioP2;P2;SDS_P1;SDS_P2;PMS_P1;PMS_P2;Temp;Humidity;BMP_temperature;BMP_pressure;BME280_temperature;BME280_humidity;BME280_pressure;Samples;Min_cycle;Max_cycle;Signal;HPM_P1;HPM_P2
2022/09/27 00:00:45;;;;;;;15.08;11.38;;;;;;;17.99;100.00;152173.84;1785873;77;21013;-60
2022/09/27 00:03:13;;;;;;;20.97;12.00;;;;;;;18.01;100.00;152179.06;1799311;79;21061;-61
2022/09/27 00:05:41;;;;;;;16.32;12.23;;;;;;;18.02;100.00;152181.72;1800544;79;21171;-65
2022/09/27 00:08:08;;;;;;;20.20;12.28;;;;;;;18.03;100.00;152185.66;1785415;79;21045;-66
2022/09/27 00:10:35;;;;;;;15.18;11.03;;;;;;;18.03;100.00;152185.66;1770574;79;21228;-61
2022/09/27 00:13:02;;;;;;;17.07;11.65;;;;;;;18.06;100.00;152190.86;1754916;80;21088;-65
2022/09/27 00:15:30;;;;;;;15.05;11.12;;;;;;;18.07;100.00;152193.47;1746232;80;21017;-61
2022/09/27 00:17:57;;;;;;;17.82;12.33;;;;;;;18.08;100.00;152196.08;1769105;81;21075;-60
2022/09/27 00:20:25;;;;;;;19.70;11.70;;;;;;;18.08;100.00;152196.08;1768000;80;21569;-65
2022/09/27 00:22:52;;;;;;;18.23;12.05;;;;;;;18.10;100.00;152201.28;1771084;79;21259;-60
2022/09/27 00:25:19;;;;;;;17.20;11.35;;;;;;;18.11;100.00;152205.17;1772094;80;21057;-61
2022/09/27 00:27:46;;;;;;;21.80;12.47;;;;;;;18.13;100.00;152209.11;1759714;80;21064;-65
2022/09/27 00:30:13;;;;;;;20.30;11.75;;;;;;;18.15;100.00;152214.31;1774355;80;21024;-61
2022/09/27 00:32:40;;;;;;;16.57;11.20;;;;;;;18.16;100.00;152216.92;1774743;79;21092;-61
2022/09/27 00:35:08;;;;;;;15.70;11.22;;;;;;;18.17;100.00;152219.53;1772076;80;21210;-61
2022/09/27 00:37:36;;;;;;;18.67;11.60;;;;;;;18.18;100.00;152222.14;1775691;78;21601;-61
2022/09/27 00:40:04;;;;;;;20.37;11.93;;;;;;;18.18;100.00;152223.47;1773164;79;21033;-61
2022/09/27 00:42:31;;;;;;;17.77;11.25;;;;;;;18.20;100.00;152227.36;1771735;80;21022;-61
2022/09/27 00:45:06;;;;;;;15.72;11.70;;;;;;;18.22;100.00;152232.56;1773099;80;21059;-61
2022/09/27 00:47:42;;;;;;;16.75;11.63;;;;;;;18.22;100.00;152232.56;1767823;80;21214;-61
2022/09/27 00:50:20;;;;;;;17.23;11.18;;;;;;;18.22;100.00;152232.56;1760704;80;21493;-61
2022/09/27 00:52:58;;;;;;;17.15;11.48;;;;;;;18.22;100.00;152231.28;1770748;80;21032;-60
2022/09/27 00:55:30;;;;;;;20.15;11.55;;;;;;;18.23;100.00;152235.17;1754234;80;21396;-61
2022/09/27 00:57:57;;;;;;;22.42;10.90;;;;;;;18.22;100.00;152232.56;1747792;80;20985;-60
2022/09/27 01:00:25;;;;;;;24.90;11.38;;;;;;;18.22;100.00;152231.28;1767013;80;21144;-62
2022/09/27 01:02:54;;;;;;;17.23;11.50;;;;;;;18.22;100.00;152231.28;1771486;80;21478;-61
2022/09/27 01:05:23;;;;;;;27.25;12.63;;;;;;;18.21;100.00;152229.97;1772662;80;21068;-61
2022/09/27 01:07:55;;;;;;;32.70;13.53;;;;;;;18.22;100.00;152231.28;1769867;79;21025;-60
2022/09/27 01:10:21;;;;;;;18.42;11.93;;;;;;;18.21;100.00;152229.97;1778289;79;21279;-59
2022/09/27 01:12:59;;;;;;;19.27;12.50;;;;;;;18.22;100.00;152231.28;1777149;79;21268;-64
2022/09/27 01:15:34;;;;;;;19.32;11.48;;;;;;;18.21;100.00;152229.97;1799940;79;21013;-66
2022/09/27 01:18:38;;;;;;;17.80;11.65;;;;;;;18.21;100.00;152229.97;1807786;79;21114;-61
2022/09/27 01:21:31;;;;;;;18.10;11.38;;;;;;;18.20;100.00;152227.36;1808536;78;21482;-61
2022/09/27 01:24:28;;;;;;;17.87;12.25;;;;;;;18.19;100.00;152224.75;1793259;79;21490;-60
2022/09/27 01:27:33;;;;;;;22.60;12.18;;;;;;;18.18;100.00;152223.47;1798816;79;22078;-64
2022/09/27 01:30:18;;;;;;;19.73;12.18;;;;;;;18.18;100.00;152222.14;1792252;79;21003;-65
2022/09/27 01:33:13;;;;;;;24.32;12.03;;;;;;;18.17;100.00;151433.63;1782703;79;21582;-64
2022/09/27 01:36:01;;;;;;;19.98;12.20;;;;;;;18.16;100.00;145882.22;1788402;79;21033;-64
2022/09/27 01:38:48;;;;;;;16.55;11.22;;;;;;;18.15;100.00;140781.59;1789141;79;21076;-63
2022/09/27 01:41:30;;;;;;;17.45;11.43;;;;;;;18.14;100.00;134462.31;1779199;78;22319;-64
2022/09/27 01:44:34;;;;;;;21.90;12.53;;;;;;;18.13;100.00;128154.47;1795061;79;21028;-64
2022/09/27 01:47:06;;;;;;;20.23;12.20;;;;;;;18.14;100.00;122036.94;1807372;79;21036;-64
2022/09/27 01:49:59;;;;;;;19.90;12.13;;;;;;;18.14;100.00;115579.05;1802585;78;21285;-65
2022/09/27 01:52:34;;;;;;;25.70;13.32;;;;;;;18.14;100.00;110177.52;1793041;79;21517;-65
2022/09/27 01:55:05;;;;;;;23.22;12.73;;;;;;;18.14;100.00;106349.23;1769499;79;21855;-65
2022/09/27 01:57:49;;;;;;;16.37;12.43;;;;;;;18.15;100.00;103048.13;1726269;82;21470;-64
2022/09/27 02:00:18;;;;;;;27.77;12.75;;;;;;;18.14;100.00;99226.75;1770211;80;20973;-65
2022/09/27 02:02:49;;;;;;;15.20;11.33;;;;;;;18.14;100.00;94543.66;1762442;80;21417;-66
2022/09/27 02:05:42;;;;;;;26.20;11.90;;;;;;;18.14;100.00;93329.74;1769527;80;21029;-65
2022/09/27 02:08:45;;;;;;;18.32;11.25;;;;;;;18.15;100.00;90040.77;1685926;82;22435;-64
2022/09/27 02:11:17;;;;;;;23.90;12.30;;;;;;;18.15;100.00;86234.52;1770786;80;21585;-64
2022/09/27 02:13:56;;;;;;;23.00;11.93;;;;;;;18.16;100.00;83643.20;1776496;79;21095;-64
2022/09/27 02:16:54;;;;;;;24.98;12.45;;;;;;;18.16;100.00;80534.41;1773712;80;21398;-65
2022/09/27 02:19:54;;;;;;;22.05;12.47;;;;;;;18.17;100.00;78983.13;1770516;80;21020;-64
2022/09/27 02:22:43;;;;;;;21.82;11.75;;;;;;;18.18;100.00;77086.16;1770972;79;21316;-64
2022/09/27 02:25:21;;;;;;;19.20;12.00;;;;;;;18.18;100.00;73638.59;1720139;81;21072;-65
2022/09/27 02:28:18;;;;;;;18.02;11.38;;;;;;;18.17;100.00;70021.75;1748809;82;21548;-65
2022/09/27 02:30:45;;;;;;;19.80;11.83;;;;;;;18.19;100.00;65551.56;1701609;82;21070;-65
2022/09/27 02:33:14;;;;;;;20.23;12.58;;;;;;;18.17;100.00;63315.53;1733900;80;21572;-65
2022/09/27 02:35:42;;;;;;;20.75;12.98;;;;;;;18.16;100.00;59669.34;1732346;81;21249;-64
2022/09/27 02:38:09;;;;;;;19.95;13.25;;;;;;;18.14;100.00;55420.68;1735353;81;21066;-63
2022/09/27 02:40:43;;;;;;;23.47;12.45;;;;;;;18.13;100.00;51994.23;1737237;82;21022;-65
2022/09/27 02:43:11;;;;;;;17.95;12.37;;;;;;;18.13;100.00;48572.68;1794176;77;21008;-65
2022/09/27 02:46:01;;;;;;;19.10;13.10;;;;;;;18.13;100.00;46008.43;1774175;79;21076;-64
2022/09/27 02:48:58;;;;;;;23.12;13.13;;;;;;;18.13;100.00;43274.99;1775497;79;21112;-65
2022/09/27 02:52:01;;;;;;;18.90;12.63;;;;;;;18.13;100.00;39861.82;1780517;79;21318;-65
2022/09/27 02:54:40;;;;;;;20.60;12.80;;;;;;;18.11;100.00;38155.14;1788723;79;21009;-65
2022/09/27 02:57:49;;;;;;;22.05;12.90;;;;;;;18.11;100.00;35087.93;1799983;78;21043;-65
2022/09/27 03:00:20;;;;;;;18.77;12.70;;;;;;;18.11;100.00;33044.67;1753549;79;21052;-65
2022/09/27 03:03:10;;;;;;;24.77;13.22;;;;;;;18.10;100.00;31002.08;1782728;79;21090;-66
2022/09/27 03:05:44;;;;;;;24.82;13.55;;;;;;;18.12;100.00;28962.45;1799197;78;20999;-63
2022/09/27 03:08:13;;;;;;;20.95;13.22;;;;;;;18.11;100.00;26922.64;1796836;79;21596;-65
2022/09/27 03:10:41;;;;;;;26.33;14.03;;;;;;;18.11;100.00;25223.74;1796297;79;21538;-65
2022/09/27 03:13:08;;;;;;;24.35;13.20;;;;;;;18.13;100.00;23696.86;1789498;79;21049;-65
2022/09/27 03:15:35;;;;;;;20.45;13.95;;;;;;;18.17;100.00;23868.24;1774308;80;21277;-65
2022/09/27 03:18:02;;;;;;;26.50;14.30;;;;;;;18.23;100.00;26758.62;1779268;79;21064;-66
2022/09/27 03:20:32;;;;;;;28.55;14.35;;;;;;;18.25;100.00;28289.45;1798426;79;21005;-65
2022/09/27 03:23:01;;;;;;;24.52;14.40;;;;;;;18.27;100.00;28630.30;1762545;79;20956;-65
2022/09/27 03:25:28;;;;;;;23.00;14.38;;;;;;;18.27;100.00;28290.52;1767166;80;21041;-65
2022/09/27 03:27:55;;;;;;;21.55;14.90;;;;;;;18.27;100.00;28120.50;1729342;82;21247;-61
2022/09/27 03:30:23;;;;;;;22.60;14.50;;;;;;;18.27;100.00;27270.29;1732067;81;21402;-61
2022/09/27 03:32:50;;;;;;;27.55;14.63;;;;;;;18.25;100.00;25400.43;1770797;80;21421;-60
2022/09/27 03:35:36;;;;;;;23.15;14.80;;;;;;;18.24;100.00;24041.29;1746170;81;22141;-61
2022/09/27 03:38:04;;;;;;;19.87;14.28;;;;;;;18.23;100.00;23022.21;1747066;81;20995;-61
2022/09/27 03:40:31;;;;;;;29.30;14.80;;;;;;;18.24;100.00;21834.67;1782717;79;21959;-61
2022/09/27 03:42:58;;;;;;;24.82;16.15;;;;;;;18.21;100.00;20476.24;1786096;79;20957;-61
2022/09/27 03:45:25;;;;;;;23.20;15.45;;;;;;;18.20;100.00;19288.82;1778228;79;21048;-61
2022/09/27 03:47:53;;;;;;;24.27;16.05;;;;;;;18.21;100.00;17763.65;1780463;79;21056;-61
2022/09/27 03:50:20;;;;;;;24.87;17.02;;;;;;;18.21;100.00;16916.42;1794708;78;20953;-60
2022/09/27 03:52:47;;;;;;;24.72;16.93;;;;;;;18.22;100.00;15900.37;1783559;79;22181;-61
2022/09/27 03:55:14;;;;;;;24.40;17.27;;;;;;;18.22;100.00;13868.49;1805593;79;20956;-61
2022/09/27 03:57:46;;;;;;;21.82;16.15;;;;;;;18.22;100.00;12007.04;1809087;78;21462;-61
2022/09/27 04:00:14;;;;;;;30.68;17.35;;;;;;;18.25;100.00;10316.32;1787740;79;21008;-60
2022/09/27 04:02:41;;;;;;;23.98;16.77;;;;;;;18.25;100.00;9132.98;1780378;79;21067;-61
2022/09/27 04:05:21;;;;;;;26.33;17.57;;;;;;;18.26;100.00;8626.12;1774543;79;21114;-61
2022/09/27 04:07:48;;;;;;;25.85;17.60;;;;;;;18.28;100.00;7612.59;1785056;79;21040;-60
2022/09/27 04:10:17;;;;;;;25.50;18.05;;;;;;;18.29;100.00;6768.05;1805952;78;21032;-61
2022/09/27 04:12:45;;;;;;;29.57;19.40;;;;;;;18.30;100.00;5754.73;1790285;79;21036;-62
2022/09/27 04:15:12;;;;;;;32.65;19.55;;;;;;;18.31;100.00;4741.79;1802739;79;21063;-61
2022/09/27 04:17:42;;;;;;;28.47;19.27;;;;;;;18.31;100.00;4235.42;1744227;78;21195;-61
2022/09/27 04:20:13;;;;;;;28.23;19.65;;;;;;;18.31;100.00;3560.28;1753829;80;21013;-60
2022/09/27 04:22:44;;;;;;;31.87;18.23;;;;;;;18.33;100.00;3223.02;1751080;80;20994;-61
2022/09/27 04:25:13;;;;;;;34.25;19.92;;;;;;;18.34;100.00;2885.58;1739469;81;21074;-61
2022/09/27 04:27:45;;;;;;;32.73;19.62;;;;;;;18.32;100.00;1873.15;1739556;81;21508;-61
2022/09/27 04:30:12;;;;;;;27.80;19.73;;;;;;;18.36;100.00;1536.10;1737514;81;21899;-61
2022/09/27 04:32:44;;;;;;;29.98;20.00;;;;;;;18.33;100.00;861.29;1735117;81;21784;-61
2022/09/27 04:38:21;;;;;;;26.57;19.35;;;;;;;18.35;100.00;-656.00;1675872;84;21126;-65
2022/09/27 04:40:47;;;;;;;28.87;19.87;;;;;;;18.35;100.00;-1330.16;1685945;82;21023;-65
2022/09/27 04:43:15;;;;;;;29.92;20.08;;;;;;;18.37;100.00;-2004.11;1741404;81;21516;-66
2022/09/27 04:45:43;;;;;;;27.73;20.27;;;;;;;18.39;100.00;-2172.52;1739880;81;21043;-65
2022/09/27 04:48:10;;;;;;;36.40;20.32;;;;;;;18.41;100.00;-2340.93;1740056;81;20995;-65
2022/09/27 04:50:39;;;;;;;27.10;19.42;;;;;;;18.43;100.00;-2509.33;1741412;81;21108;-61
2022/09/27 04:53:06;;;;;;;27.05;20.92;;;;;;;18.46;100.00;-2677.74;1765256;81;21100;-65
2022/09/27 04:55:34;;;;;;;31.25;19.82;;;;;;;18.48;100.00;-2677.68;1757650;81;21136;-65
2022/09/27 04:58:01;;;;;;;32.13;20.23;;;;;;;18.51;100.00;-2677.58;1756887;80;21021;-66
2022/09/27 05:00:29;;;;;;;31.55;21.12;;;;;;;18.53;100.00;-2340.50;1752712;80;21033;-65
2022/09/27 05:02:58;;;;;;;30.80;22.00;;;;;;;18.53;100.00;-2171.97;1775786;79;21065;-65
2022/09/27 05:05:30;;;;;;;32.60;20.95;;;;;;;18.58;100.00;-2003.25;1787945;77;21821;-66
2022/09/27 05:07:57;;;;;;;37.78;22.13;;;;;;;18.59;100.00;-1497.48;1784417;79;21316;-65
2022/09/27 05:10:25;;;;;;;31.80;22.22;;;;;;;18.63;100.00;-991.52;1771502;79;21320;-65
2022/09/27 05:12:53;;;;;;;43.35;23.47;;;;;;;18.64;100.00;-1160.07;1761854;80;21045;-65
2022/09/27 05:15:20;;;;;;;35.50;21.12;;;;;;;18.65;100.00;-991.40;1766401;80;21056;-66
2022/09/27 05:18:07;;;;;;;28.40;20.82;;;;;;;18.66;100.00;-991.34;1777776;79;21069;-65
2022/09/27 05:20:45;;;;;;;33.73;20.75;;;;;;;18.68;100.00;-653.95;1741451;79;21834;-62
2022/09/27 05:23:14;;;;;;;27.85;20.32;;;;;;;18.67;100.00;-316.68;1753975;80;21009;-62
2022/09/27 05:25:41;;;;;;;35.15;21.45;;;;;;;18.70;100.00;-147.83;1767505;80;21105;-65
2022/09/27 05:28:09;;;;;;;34.18;22.00;;;;;;;18.75;100.00;-484.83;1770589;80;21029;-66
2022/09/27 05:30:36;;;;;;;30.85;21.40;;;;;;;18.78;100.00;-315.98;1761706;80;21498;-66
2022/09/27 05:33:11;;;;;;;28.95;20.97;;;;;;;18.81;100.00;190.40;1775645;80;21100;-61
2022/09/27 05:35:53;;;;;;;36.13;21.30;;;;;;;18.83;100.00;1203.05;1772995;80;21046;-61
2022/09/27 05:38:22;;;;;;;;;;;;;;;18.84;100.00;2216.07;1768555;80;21033;-61
2022/09/27 05:40:50;;;;;;;27.77;19.65;;;;;;;18.87;100.00;3229.57;1768260;80;20426;-61
2022/09/27 05:43:17;;;;;;;36.60;20.12;;;;;;;18.88;100.00;3398.66;1768083;80;21064;-61
2022/09/27 05:45:44;;;;;;;36.20;20.55;;;;;;;18.88;100.00;4412.28;1777393;80;21168;-65
2022/09/27 05:48:13;;;;;;;31.68;19.70;;;;;;;18.93;100.00;4750.83;1770045;80;21049;-66
2022/09/27 05:50:45;;;;;;;27.05;20.37;;;;;;;18.94;100.00;5934.15;1757730;80;21040;-66
2022/09/27 05:53:12;;;;;;;29.87;19.48;;;;;;;18.95;100.00;7117.93;1771881;80;21372;-61
2022/09/27 05:55:40;;;;;;;26.05;19.42;;;;;;;18.95;100.00;8471.15;1766175;80;21798;-65
2022/09/27 05:58:07;;;;;;;28.05;19.15;;;;;;;18.96;100.00;9317.42;1766238;79;21267;-66
2022/09/27 06:00:48;;;;;;;28.62;19.55;;;;;;;18.95;100.00;9994.30;1761603;80;21491;-65
2022/09/27 06:03:17;;;;;;;32.88;20.40;;;;;;;18.97;100.00;10163.93;1709567;80;21530;-66
2022/09/27 06:05:53;;;;;;;28.25;18.42;;;;;;;18.98;100.00;10502.88;1771069;80;21142;-65
2022/09/27 06:08:36;;;;;;;31.00;19.65;;;;;;;18.98;100.00;11180.15;1773823;80;21480;-66
2022/09/27 06:11:07;;;;;;;29.02;18.92;;;;;;;19.01;100.00;12027.62;1781118;78;21462;-66
2022/09/27 06:13:41;;;;;;;31.23;19.17;;;;;;;19.01;100.00;12705.37;1777431;77;21047;-65
2022/09/27 06:16:10;;;;;;;27.30;18.82;;;;;;;19.04;100.00;13214.40;1774567;79;21705;-66
2022/09/27 06:18:38;;;;;;;36.17;19.80;;;;;;;19.07;100.00;13384.74;1791781;77;21033;-66
2022/09/27 06:21:06;;;;;;;37.90;18.87;;;;;;;19.11;100.00;13894.25;1798769;77;21025;-65
2022/09/27 06:23:34;;;;;;;35.25;18.90;;;;;;;19.14;100.00;14403.90;1778758;79;21549;-65
2022/09/27 06:26:04;;;;;;;33.18;19.48;;;;;;;19.16;100.00;15761.19;1795740;78;21023;-65
2022/09/27 06:28:34;;;;;;;30.82;19.37;;;;;;;19.18;100.00;17288.82;1776013;77;21035;-65
2022/09/27 06:31:05;;;;;;;28.45;17.35;;;;;;;19.21;100.00;18647.67;1793862;77;21141;-66
2022/09/27 06:33:34;;;;;;;24.98;17.60;;;;;;;19.23;100.00;20006.78;1771578;79;21481;-66
2022/09/27 06:36:05;;;;;;;28.85;17.87;;;;;;;19.22;100.00;22215.16;1772611;77;21868;-66
2022/09/27 06:38:33;;;;;;;22.98;17.27;;;;;;;19.22;100.00;23745.18;1774352;77;21026;-62
2022/09/27 06:41:15;;;;;;;29.02;18.10;;;;;;;19.23;100.00;25616.65;1805038;77;21223;-66
2022/09/27 06:44:02;;;;;;;28.87;18.17;;;;;;;19.21;100.00;26807.06;1779614;79;21029;-62
2022/09/27 06:46:49;;;;;;;27.25;18.25;;;;;;;19.24;100.00;27489.23;1795938;77;21037;-62
2022/09/27 06:49:28;;;;;;;32.85;18.10;;;;;;;19.26;100.00;28171.32;1773344;77;21133;-61
2022/09/27 06:51:56;;;;;;;22.73;16.17;;;;;;;19.29;100.00;29194.80;1771286;78;21378;-66
2022/09/27 06:54:23;;;;;;;25.80;16.62;;;;;;;19.31;100.00;30388.53;1792119;77;21068;-61
2022/09/27 06:56:51;;;;;;;30.60;17.75;;;;;;;19.33;100.00;32094.21;1786772;78;21065;-60
2022/09/27 07:02:24;;;;;;;22.60;16.00;;;;;;;19.35;100.00;35848.27;1797403;77;21099;-64
2022/09/27 07:04:53;;;;;;;32.20;16.48;;;;;;;19.36;100.00;38239.88;1770848;77;21017;-60
2022/09/27 07:07:28;;;;;;;38.13;18.57;;;;;;;19.34;100.00;39605.25;1765971;79;22521;-61
2022/09/27 07:09:55;;;;;;;29.55;16.27;;;;;;;19.34;100.00;39434.37;1765992;78;22279;-66
2022/09/27 07:12:24;;;;;;;30.27;16.23;;;;;;;19.35;100.00;39947.78;1803468;77;21253;-66
2022/09/27 07:14:54;;;;;;;31.40;15.88;;;;;;;19.38;100.00;40462.36;1797673;78;21238;-61
2022/09/27 07:17:22;;;;;;;31.05;16.57;;;;;;;19.40;100.00;40464.21;1801899;77;21063;-66
2022/09/27 07:19:53;;;;;;;31.17;15.75;;;;;;;19.43;100.00;40978.94;1795345;77;21044;-65
2022/09/27 07:22:20;;;;;;;27.20;16.62;;;;;;;19.46;100.00;42007.63;1782422;78;20893;-66
2022/09/27 07:24:49;;;;;;;27.93;15.60;;;;;;;19.49;100.00;43720.03;1786614;78;20990;-63
2022/09/27 07:27:17;;;;;;;31.95;16.52;;;;;;;19.50;100.00;44577.01;1748422;78;21280;-65
2022/09/27 07:29:44;;;;;;;27.73;15.90;;;;;;;19.52;100.00;46119.21;1801800;79;21021;-62
2022/09/27 07:32:11;;;;;;;27.00;15.23;;;;;;;19.53;100.00;47147.78;1798706;77;20989;-61
2022/09/27 07:34:38;;;;;;;29.30;15.90;;;;;;;19.54;100.00;50062.32;1798409;77;21071;-65
2022/09/27 07:37:07;;;;;;;27.10;18.23;;;;;;;19.53;100.00;51433.41;1806457;77;22196;-66
2022/09/27 07:39:36;;;;;;;29.65;15.45;;;;;;;19.54;100.00;52120.55;1800775;77;21269;-61
2022/09/27 07:42:05;;;;;;;29.40;14.23;;;;;;;19.55;100.00;52636.24;1800908;77;21032;-61
2022/09/27 07:44:34;;;;;;;25.27;15.70;;;;;;;19.57;100.00;52466.53;1781274;77;22100;-62
2022/09/27 07:47:12;;;;;;;28.73;15.43;;;;;;;19.60;100.00;52469.33;1791834;77;21083;-61
2022/09/27 07:49:57;;;;;;;21.25;14.23;;;;;;;19.61;100.00;53328.42;1806392;77;21055;-61
2022/09/27 07:52:40;;;;;;;25.90;14.33;;;;;;;19.65;100.00;53160.07;1769337;77;21906;-61
2022/09/27 07:55:26;;;;;;;27.67;13.78;;;;;;;19.67;100.00;53505.79;1797985;77;21053;-61
2022/09/27 07:58:04;;;;;;;25.90;13.68;;;;;;;19.70;100.00;57115.98;1781224;79;21005;-61
2022/09/27 08:00:31;;;;;;;42.13;14.83;;;;;;;19.74;100.00;60683.05;1774497;79;21514;-61
2022/09/27 08:03:03;;;;;;;26.77;14.45;;;;;;;19.78;100.00;63833.03;1803019;77;21909;-61
2022/09/27 08:05:34;;;;;;;24.75;14.60;;;;;;;19.83;100.00;63494.19;1714053;80;40299;-61
2022/09/27 08:08:03;;;;;;;24.92;13.83;;;;;;;19.90;100.00;66949.27;1758819;79;21043;-61
2022/09/27 08:10:34;;;;;;;18.70;12.45;;;;;;;20.00;100.00;68685.34;1791980;77;21527;-63
2022/09/27 08:13:03;;;;;;;25.77;14.07;;;;;;;20.11;100.00;74916.00;1746974;79;22125;-60
2022/09/27 08:15:32;;;;;;;25.43;13.58;;;;;;;20.22;100.00;89658.55;1789918;77;20950;-63
2022/09/27 08:17:59;;;;;;;28.70;13.43;;;;;;;20.33;100.00;97848.36;1796658;77;21241;-62
2022/09/27 08:20:29;;;;;;;24.15;13.20;;;;;;;20.46;100.00;116025.11;1751870;80;21053;-61
2022/09/27 08:23:08;;;;;;;20.35;13.03;;;;;;;20.55;100.00;145576.56;1776467;79;21083;-60
2022/09/27 08:25:38;;;;;;;26.97;12.47;;;;;;;20.67;100.00;152848.89;1780318;77;21082;-60
2022/09/27 08:28:10;;;;;;;23.62;11.97;;;;;;;20.72;100.00;152863.28;1736737;81;21017;-60
2022/09/27 08:30:40;;;;;;;23.05;11.38;;;;;;;20.76;100.00;152873.72;1769758;79;21219;-60
2022/09/27 08:33:08;;;;;;;20.20;12.18;;;;;;;20.79;100.00;152879.00;1782007;78;21045;-60
2022/09/27 08:35:36;;;;;;;27.02;12.23;;;;;;;20.79;100.00;152880.28;1743546;79;21569;-62
2022/09/27 08:38:04;;;;;;;24.00;11.80;;;;;;;20.81;100.00;152885.55;1741352;80;21008;-62
2022/09/27 08:40:57;;;;;;;20.08;11.45;;;;;;;20.84;100.00;152893.38;1791517;77;20965;-60
2022/09/27 08:44:06;;;;;;;20.10;12.28;;;;;;;20.89;100.00;152906.48;1793363;79;22143;-60
2022/09/27 08:47:07;;;;;;;21.62;10.78;;;;;;;20.97;100.00;152924.75;1801389;77;21065;-61
2022/09/27 08:49:46;;;;;;;25.37;10.98;;;;;;;21.14;100.00;152967.88;1804597;77;21008;-60
2022/09/27 08:52:30;;;;;;;23.12;11.63;;;;;;;21.23;100.00;152990.09;1806139;77;20921;-60
2022/09/27 08:55:03;;;;;;;18.95;10.65;;;;;;;21.27;100.00;153001.88;1816475;77;21076;-60
2022/09/27 08:57:31;;;;;;;27.60;11.25;;;;;;;21.32;100.00;153014.94;1804190;77;21208;-60
2022/09/27 09:00:12;;;;;;;18.52;10.72;;;;;;;21.34;100.00;153018.88;1792038;77;21073;-61
2022/09/27 09:02:42;;;;;;;22.22;11.08;;;;;;;21.35;100.00;153021.50;1809137;77;21058;-61
2022/09/27 09:05:13;;;;;;;14.35;10.08;;;;;;;21.38;100.00;153029.33;1805861;77;21470;-60
2022/09/27 09:07:57;;;;;;;16.85;9.68;;;;;;;21.40;100.00;153033.22;1812652;77;21014;-61
2022/09/27 09:14:19;;;;;;;17.42;9.78;;;;;;;21.42;100.00;153039.78;1801353;77;21052;-60
2022/09/27 09:17:08;;;;;;;18.23;9.40;;;;;;;21.40;100.00;153034.55;1803422;77;21489;-60
2022/09/27 09:19:48;;;;;;;15.48;8.83;;;;;;;21.38;100.00;153029.33;1795918;77;21426;-61
2022/09/27 09:22:44;;;;;;;24.18;9.93;;;;;;;21.36;100.00;153022.78;1802818;77;21530;-61
2022/09/27 09:25:44;;;;;;;17.37;9.90;;;;;;;21.32;100.00;153013.61;1782514;79;21126;-61
2022/09/27 09:28:33;;;;;;;14.63;8.33;;;;;;;21.31;100.00;153011.00;1786844;77;20989;-60
2022/09/27 09:31:09;;;;;;;19.90;9.35;;;;;;;21.37;100.00;153026.72;1781077;77;21096;-61
2022/09/27 09:33:40;;;;;;;17.37;8.90;;;;;;;21.40;100.00;153034.55;1779889;78;21060;-60
2022/09/27 09:36:46;;;;;;;17.90;8.78;;;;;;;21.46;100.00;153050.22;1785270;78;21495;-62
2022/09/27 09:39:35;;;;;;;21.23;10.10;;;;;;;21.53;100.00;153065.91;1776980;78;21181;-60
2022/09/27 09:42:11;;;;;;;25.25;9.93;;;;;;;21.56;100.00;153073.78;1780113;78;21218;-61
2022/09/27 09:45:00;;;;;;;18.05;9.75;;;;;;;21.55;100.00;153071.13;1773418;80;20989;-61
2022/09/27 09:47:39;;;;;;;16.45;8.80;;;;;;;21.51;100.00;153060.67;1707214;82;21106;-61
2022/09/27 09:50:21;;;;;;;21.12;9.33;;;;;;;21.51;100.00;153060.67;1809037;77;21099;-62
2022/09/27 09:52:58;;;;;;;18.35;9.55;;;;;;;21.50;100.00;153058.06;1777997;77;22037;-62
2022/09/27 09:55:34;;;;;;;20.15;9.30;;;;;;;21.51;100.00;153060.67;1809747;77;21012;-61
2022/09/27 09:58:26;;;;;;;24.75;10.58;;;;;;;21.52;100.00;153064.63;1792752;77;21557;-61
2022/09/27 10:00:59;;;;;;;16.27;9.08;;;;;;;21.59;100.00;153081.63;1806985;77;21505;-62
2022/09/27 10:03:26;;;;;;;16.35;9.05;;;;;;;21.63;100.00;153090.73;1823105;77;21056;-61
2022/09/27 10:05:54;;;;;;;17.30;8.93;;;;;;;21.65;100.00;153097.34;1812183;77;21640;-62
2022/09/27 10:08:22;;;;;;;17.62;9.18;;;;;;;21.72;100.00;153114.34;1805227;77;21087;-62
2022/09/27 10:10:51;;;;;;;19.30;9.08;;;;;;;21.78;100.00;153130.03;1817849;77;21620;-62
2022/09/27 10:13:37;;;;;;;21.23;11.12;;;;;;;21.79;100.00;153131.36;1797364;77;21697;-66
2022/09/27 10:16:10;;;;;;;20.70;10.90;;;;;;;21.84;100.00;153144.42;1805900;77;21107;-66
2022/09/27 10:18:40;;;;;;;23.80;12.15;;;;;;;21.94;100.00;153170.55;1795192;77;21483;-65
2022/09/27 10:21:27;;;;;;;20.02;10.25;;;;;;;22.01;100.00;153188.89;1769927;79;21071;-66
2022/09/27 10:24:10;;;;;;;15.50;8.95;;;;;;;22.07;100.00;153201.95;1791811;77;21033;-61
2022/09/27 10:26:59;;;;;;;14.75;8.38;;;;;;;22.07;100.00;153203.23;1798293;78;21546;-61
2022/09/27 10:29:34;;;;;;;14.58;8.35;;;;;;;22.00;100.00;153186.28;1778611;77;21020;-61
2022/09/27 10:32:03;;;;;;;15.08;7.95;;;;;;;22.06;100.00;153200.63;1784492;77;26753;-61
2022/09/27 10:34:40;;;;;;;13.18;8.28;;;;;;;22.14;100.00;153220.25;1785426;79;21020;-61
2022/09/27 10:37:20;;;;;;;14.33;8.10;;;;;;;22.23;100.00;153242.48;1794109;79;21383;-61
2022/09/27 10:40:25;;;;;;;20.77;7.90;;;;;;;22.27;99.86;153254.27;1807474;78;20991;-61
2022/09/27 10:42:52;;;;;;;18.98;8.23;;;;;;;22.26;98.59;153250.33;1794253;79;21089;-61
2022/09/27 10:45:35;;;;;;;15.55;7.83;;;;;;;22.22;98.67;153241.20;1797464;77;22118;-62
2022/09/27 10:48:19;;;;;;;12.85;8.15;;;;;;;22.21;98.36;153237.25;1796066;77;21048;-60
2022/09/27 10:51:06;;;;;;;12.05;7.33;;;;;;;22.17;97.45;153229.41;1789166;77;21084;-62
2022/09/27 10:53:44;;;;;;;19.15;8.13;;;;;;;22.13;96.72;153217.63;1788774;77;20953;-62
2022/09/27 10:56:27;;;;;;;15.23;7.75;;;;;;;22.11;96.29;153212.41;1789887;79;21032;-65
2022/09/27 10:58:55;;;;;;;12.55;7.75;;;;;;;22.07;95.95;153201.95;1798726;78;21295;-60
2022/09/27 11:01:23;;;;;;;15.90;8.23;;;;;;;22.01;96.37;153187.56;1792677;78;21020;-61
2022/09/27 11:03:59;;;;;;;15.23;7.62;;;;;;;21.98;97.06;153181.00;1785009;79;21012;-61
2022/09/27 11:06:31;;;;;;;12.63;7.70;;;;;;;21.99;97.32;153182.33;1785797;78;20960;-66
2022/09/27 11:09:23;;;;;;;14.63;7.90;;;;;;;21.98;97.06;153181.00;1788707;79;21036;-65
2022/09/27 11:11:49;;;;;;;13.32;8.03;;;;;;;21.97;96.77;153177.11;1801059;77;21115;-65
2022/09/27 11:14:23;;;;;;;17.02;8.53;;;;;;;21.92;96.87;153164.03;1796039;77;21441;-66
2022/09/27 11:17:13;;;;;;;19.05;7.97;;;;;;;21.85;97.02;153148.31;1791029;77;20955;-65
2022/09/27 11:20:07;;;;;;;15.43;7.83;;;;;;;21.85;97.06;153148.31;1784270;77;21044;-66
2022/09/27 11:23:11;;;;;;;14.87;7.95;;;;;;;21.84;96.08;153144.42;1801978;77;21088;-65
2022/09/27 11:26:00;;;;;;;19.20;8.03;;;;;;;21.77;96.21;153126.08;1806368;77;21414;-65
2022/09/27 11:29:00;;;;;;;11.40;8.10;;;;;;;21.70;96.39;153109.13;1805534;77;21104;-61
2022/09/27 11:31:47;;;;;;;16.20;8.08;;;;;;;21.67;96.59;153101.28;1759313;78;21093;-60
2022/09/27 11:34:42;;;;;;;19.98;8.43;;;;;;;21.66;95.77;153099.95;1801639;77;21013;-61
2022/09/27 11:37:33;;;;;;;22.95;9.53;;;;;;;21.65;95.46;153097.34;1795711;77;21025;-66
2022/09/27 11:40:11;;;;;;;12.00;8.13;;;;;;;21.66;94.67;153098.63;1789178;79;20992;-65
2022/09/27 11:43:05;;;;;;;13.45;7.95;;;;;;;21.65;94.40;153097.34;1788066;77;21076;-60
2022/09/27 11:46:11;;;;;;;15.20;7.78;;;;;;;21.65;93.78;153096.02;1794647;79;21068;-61
2022/09/27 11:49:06;;;;;;;12.85;8.08;;;;;;;21.64;93.35;153094.69;1783247;78;21680;-66
2022/09/27 11:52:15;;;;;;;14.00;7.22;;;;;;;21.69;92.82;153107.80;1796724;79;21112;-65
2022/09/27 11:55:15;;;;;;;11.93;7.22;;;;;;;21.74;92.08;153120.86;1781572;78;21220;-65
2022/09/27 11:57:57;;;;;;;15.95;6.83;;;;;;;21.81;91.18;153136.58;1795603;78;21048;-65